Home > Products > Valid Products > TAF

000
FTUS45 KMSO 171300 AAA
TAFGPI
TAF AMD
KGPI 171353Z 1714/1812 16007KT P6SM -RA FEW020 BKN030 OVC040
      TEMPO 1715/1718 6SM -RA SCT010 BKN020 OVC030
     FM172100 16012KT P6SM -RA BKN030 OVC040=



000
FTUS45 KMSO 171100
TAFMSO
TAF
KMSO 171120Z 1712/1812 VRB03KT P6SM VCSH OVC060
     FM171800 24010KT P6SM VCSH OVC060=



000
FTUS45 KMSO 171100
TAFBTM
TAF
KBTM 171120Z 1712/1812 VRB05KT P6SM OVC060
     FM171800 20012G18KT P6SM BKN060=



000
FTUS45 KMSO 171100
TAFGPI
TAF
KGPI 171120Z 1712/1812 16007KT P6SM VCSH FEW040 BKN050 OVC060
     FM172100 16012KT P6SM -RA BKN030 OVC040=



000
FTUS45 KMSO 171100
TAFSMN
TAF
KSMN 171120Z 1712/1812 VRB03KT P6SM SCT090
     FM171900 20010KT P6SM BKN080
     FM172100 21011G20KT P6SM OVC080
      AMD LTD TO CLD VIS AND WIND=



000
FTUS45 KMSO 170500
TAFMSO
TAF
KMSO 170520Z 1706/1806 VRB03KT P6SM OVC060
     FM171800 24010KT P6SM OVC060=



000
FTUS45 KMSO 170500
TAFSMN
TAF
KSMN 170520Z 1706/1806 VRB03KT P6SM SCT090
     FM172100 21011KT P6SM OVC080
      AMD LTD TO CLD VIS AND WIND=



000
FTUS45 KMSO 170500
TAFGPI
TAF
KGPI 170520Z 1706/1806 16007KT P6SM FEW040 OVC060
     FM172100 16012KT P6SM VCSH OVC040=



000
FTUS45 KMSO 170500
TAFBTM
TAF
KBTM 170520Z 1706/1806 VRB05KT P6SM SCT070
     FM171200 VRB05KT P6SM SCT040 BKN080
     FM171800 20012G18KT P6SM BKN060=



000
FTUS45 KMSO 162300
TAFMSO
TAF
KMSO 162320Z 1700/1724 08007KT P6SM VCSH BKN050 OVC070
     FM170200 VRB05KT P6SM FEW070 BKN100
     FM171800 24010KT P6SM SCT070=



000
FTUS45 KMSO 162300
TAFGPI
TAF
KGPI 162320Z 1700/1724 20012KT P6SM OVC050
     FM170100 17005KT P6SM SCT080=



000
FTUS45 KMSO 162300
TAFSMN
TAF
KSMN 162320Z 1700/1724 06004KT P6SM SCT150
      AMD LTD TO CLD VIS AND WIND=



000
FTUS45 KMSO 162300
TAFBTM
TAF
KBTM 162320Z 1700/1724 31007KT P6SM VCSH OVC060
     FM170200 31010KT P6SM SCT060 BKN080
     FM171200 VRB05KT P6SM SCT040 BKN080=



000
FTUS45 KMSO 161700
TAFSMN
TAF
KSMN 161723Z 1618/1718 04004KT P6SM SCT150
      AMD LTD TO CLD VIS AND WIND=



000
FTUS45 KMSO 161700
TAFGPI
TAF
KGPI 161723Z 1618/1718 16007KT P6SM BKN080
     FM162100 16012KT P6SM SCT080
     FM170100 17005KT P6SM SCT080=



000
FTUS45 KMSO 161700
TAFMSO
TAF
KMSO 161723Z 1618/1718 00000KT P6SM SCT070 BKN110
     FM162100 30012KT P6SM FEW070 BKN110
     FM170200 VRB05KT P6SM FEW070 BKN100=



000
FTUS45 KMSO 161700
TAFBTM
TAF
KBTM 161723Z 1618/1718 31007KT P6SM OVC060
     FM162000 31014KT P6SM SCT060 BKN080
     FM170200 VRB05KT P6SM SCT040 BKN080=



000
FTUS45 KMSO 161400 AAB
TAFGPI
TAF AMD
KGPI 161458Z 1615/1712 00000KT 5SM BR FEW001 OVC070
     FM161530 05008KT P6SM BKN050
     FM161600 15007KT P6SM VCSH SCT025 OVC050=



000
FTUS45 KMSO 161400 AAB
TAFMSO
TAF AMD
KMSO 161458Z 1615/1712 00000KT P6SM VCFG SKC
     FM161530 29006KT P6SM BKN050 BKN080=



000
FTUS45 KMSO 161400 AAA
TAFGPI
TAF AMD
KGPI 161400Z 1614/1712 00000KT 1/4SM FZFG VV002
     FM161530 05008KT P6SM BKN050
     FM161600 15007KT P6SM VCSH SCT025 OVC050=



000
FTUS45 KMSO 161300 AAA
TAFMSO
TAF AMD
KMSO 161346Z 1614/1712 00000KT 1SM BR SCT004
      TEMPO 1614/1615 1/4SM FZFG VV002
     FM161500 VRB03KT P6SM VCFG BKN120
     FM161530 29006KT P6SM BKN050 BKN080=



000
FTUS45 KMSO 161200 AAA
TAFMSO
TAF AMD
KMSO 161225Z 1612/1712 00000KT 1SM BR SCT004
     FM161400 VRB03KT P6SM VCFG BKN120
     FM161500 29006KT P6SM BKN050 BKN080=



000
FTUS45 KMSO 161100
TAFGPI
TAF
KGPI 161120Z 1612/1712 00000KT 1/4SM FZFG VV002
     FM161400 05008KT P6SM BKN050
     FM161700 15007KT P6SM VCSH SCT025 OVC050=



000
FTUS45 KMSO 161100
TAFSMN
TAF
KSMN 161120Z 1612/1712 VRB04KT P6SM SCT070
     FM161800 33008KT P6SM BKN060
      AMD LTD TO CLD VIS AND WIND=



000
FTUS45 KMSO 161100
TAFMSO
TAF
KMSO 161120Z 1612/1712 VRB03KT P6SM VCFG BKN120
     FM161400 29006KT P6SM BKN050 BKN080=



000
FTUS45 KMSO 161100
TAFBTM
TAF
KBTM 161120Z 1612/1712 32008KT P6SM BKN050 OVC080
     FM161700 27010KT P6SM BKN060=



000
FTUS45 KMSO 161000 AAB
TAFGPI
TAF AMD
KGPI 161058Z 1611/1706 00000KT 1/4SM FZFG VV002
     FM161400 05008KT P6SM BKN050
     FM161700 15007KT P6SM VCSH SCT025 OVC050=



000
FTUS45 KMSO 160900 AAA
TAFGPI
TAF AMD
KGPI 160954Z 1610/1706 00000KT 3SM BR SCT001 SCT070
     FM161400 05008KT P6SM BKN050
     FM161700 15007KT P6SM VCSH SCT025 OVC050=



000
FTUS45 KMSO 160500
TAFMSO
TAF
KMSO 160522Z 1606/1706 30007KT P6SM VCSH BKN060 OVC070
     FM160800 VRB04KT P6SM SCT050 BKN100
     FM161400 29006KT P6SM BKN050 BKN080=



000
FTUS45 KMSO 160500
TAFSMN
TAF
KSMN 160522Z 1606/1706 VRB04KT P6SM VCSH SCT120
     FM161800 33008KT P6SM BKN060
      AMD LTD TO CLD VIS AND WIND=



000
FTUS45 KMSO 160500
TAFBTM
TAF
KBTM 160522Z 1606/1706 32008KT P6SM VCSH SCT060 OVC100
     FM160800 31008G18KT P6SM -SHSN BKN035 BKN060
     FM161000 VRB05KT P6SM BKN060=



000
FTUS45 KMSO 160500
TAFGPI
TAF
KGPI 160522Z 1606/1706 VRB05KT P6SM BKN070
     FM161400 05008KT P6SM BKN050
     FM161700 15007KT P6SM VCSH SCT025 OVC050=



000
FTUS45 KMSO 160300 AAA
TAFBTM
TAF AMD
KBTM 160331Z 1604/1624 32012G22KT P6SM VCSH SCT060 OVC100
     FM160900 VRB04KT P6SM SCT060 BKN080=



000
FTUS45 KMSO 160100 AAA
TAFSMN
TAF AMD
KSMN 160112Z 1601/1624 24004KT P6SM VCSH BKN090
     FM160300 35004KT P6SM BKN060
      AMD LTD TO CLD VIS AND WIND=



000
FTUS45 KMSO 160100 AAA
TAFMSO
TAF AMD
KMSO 160112Z 1601/1624 30012KT P6SM VCSH BKN060 OVC070
     FM160300 VRB04KT P6SM SCT050 BKN100
     FM161400 VRB04KT P6SM BKN050 BKN080=



000
FTUS45 KMSO 160000 RRA
TAFBTM
TAF
KBTM 160052Z 1601/1624 30015G30KT P6SM VCSH BKN070
     FM160300 32010KT P6SM VCSH SCT060 OVC100
     FM160900 VRB04KT P6SM SCT060 BKN080=



000
FTUS45 KMSO 160000 RRA
TAFGPI
TAF
KGPI 160052Z 1601/1624 09009KT P6SM -RA OVC040
     FM160300 VRB05KT P6SM OVC050
     FM161700 05008KT P6SM VCSH SCT025 OVC050=



000
FTUS45 KMSO 160000 RRA
TAFMSO
TAF
KMSO 160052Z 1601/1624 29012G25KT P6SM VCSH BKN060 OVC070
     FM160300 VRB04KT P6SM SCT050 BKN100
     FM161400 VRB04KT P6SM BKN050 BKN080=



000
FTUS45 KMSO 160000 RRA
TAFSMN
TAF
KSMN 160052Z 1601/1624 01012G22KT P6SM VCSH BKN090
     FM160300 35004KT P6SM BKN060
      AMD LTD TO CLD VIS AND WIND=



000
FTUS45 KMSO 151700
TAFMSO
TAF
KMSO 151729Z 1518/1618 26012G23KT P6SM BKN060 OVC070
     FM152100 28015G29KT P6SM VCSH OVC050
     FM160300 VRB04KT P6SM SCT050 BKN100
     FM161400 VRB04KT P6SM BKN050 BKN080=



000
FTUS45 KMSO 151700
TAFBTM
TAF
KBTM 151729Z 1518/1618 30015G20KT P6SM OVC070
     FM152200 30018G30KT P6SM VCSH OVC060
     FM160300 32010KT P6SM VCSH SCT060 OVC100
     FM160900 VRB04KT P6SM SCT060 BKN080=



000
FTUS45 KMSO 151700
TAFSMN
TAF
KSMN 151729Z 1518/1618 10003KT P6SM VCSH BKN090
     FM151900 35010G16KT P6SM BKN090
     FM152100 32018G29KT P6SM BKN070
     FM160300 35004KT P6SM BKN060
      AMD LTD TO CLD VIS AND WIND=



000
FTUS45 KMSO 151700
TAFGPI
TAF
KGPI 151729Z 1518/1618 17003KT P6SM FEW080 BKN100 OVC110
     FM152000 20010G20KT P6SM VCSH OVC050
     FM152200 30010G17KT P6SM VCSH OVC050
     FM160300 VRB05KT P6SM OVC050
     FM161700 05008KT P6SM VCSH SCT025 OVC050=



000
FTUS45 KMSO 151100
TAFBTM
TAF
KBTM 151126Z 1512/1612 VRB03KT P6SM SCT200
     FM151700 29010G18KT P6SM BKN060
     FM152200 31018G30KT P6SM VCSH OVC070=



000
FTUS45 KMSO 151100
TAFGPI
TAF
KGPI 151126Z 1512/1612 VRB05KT P6SM BKN120
     FM151500 18007KT P6SM BKN060
     FM152000 20010G20KT P6SM VCSH OVC050=



000
FTUS45 KMSO 151100
TAFSMN
TAF
KSMN 151126Z 1512/1612 30003KT P6SM BKN110
     FM151700 32010G20KT P6SM VCSH BKN060
     FM152200 34018G29KT P6SM BKN070
      AMD LTD TO CLD VIS AND WIND=



000
FTUS45 KMSO 151100
TAFMSO
TAF
KMSO 151126Z 1512/1612 VRB05KT P6SM BKN120
     FM151600 28012G21KT P6SM BKN060
     FM152100 30015G29KT P6SM VCSH OVC060=



000
FTUS45 KMSO 150500
TAFMSO
TAF
KMSO 150520Z 1506/1606 VRB05KT P6SM FEW120
     FM151800 29007KT P6SM BKN060
     FM152100 30015G25KT P6SM VCSH OVC060=



000
FTUS45 KMSO 150500
TAFBTM
TAF
KBTM 150520Z 1506/1606 VRB03KT P6SM SCT200
     FM151700 29010G18KT P6SM VCSH SCT150
     FM152200 31018G30KT P6SM VCSH OVC070=



000
FTUS45 KMSO 150500
TAFGPI
TAF
KGPI 150520Z 1506/1606 VRB05KT P6SM FEW120
     FM151500 18007KT P6SM BKN060
     FM152000 20010G20KT P6SM VCSH OVC050=



000
FTUS45 KMSO 150500
TAFSMN
TAF
KSMN 150520Z 1506/1606 30003KT P6SM SKC
     FM152200 34018G29KT P6SM BKN070
      AMD LTD TO CLD VIS AND WIND=



000
FTUS45 KMSO 142300
TAFMSO
TAF
KMSO 142324Z 1500/1524 VRB05KT P6SM FEW120
     FM151800 29007KT P6SM BKN060
     FM152100 30015G25KT P6SM VCSH OVC060=



000
FTUS45 KMSO 142300
TAFBTM
TAF
KBTM 142324Z 1500/1524 32010KT P6SM SCT200
     FM150300 VRB05KT P6SM SCT150
     FM152200 31014G24KT P6SM VCSH OVC070=



000
FTUS45 KMSO 142300
TAFGPI
TAF
KGPI 142324Z 1500/1524 16012KT P6SM SKC
     FM150300 VRB04KT P6SM BKN150
     FM152000 18010KT P6SM VCSH OVC050=



000
FTUS45 KMSO 142300
TAFSMN
TAF
KSMN 142324Z 1500/1524 30003KT P6SM SKC
     FM152200 34012G22KT P6SM BKN070
      AMD LTD TO CLD VIS AND WIND=



000
FTUS45 KMSO 141700
TAFBTM
TAF
KBTM 141736Z 1418/1518 VRB05KT P6SM SKC
     FM141900 27010G18KT P6SM SKC
     FM150300 VRB05KT P6SM SCT200
     FM151700 29010G20KT P6SM BKN070=



000
FTUS45 KMSO 141700
TAFGPI
TAF
KGPI 141736Z 1418/1518 17004KT P6SM SKC
     FM142000 18010KT P6SM FEW200
     FM150300 VRB04KT P6SM SCT150=



000
FTUS45 KMSO 141700
TAFSMN
TAF
KSMN 141736Z 1418/1518 VRB02KT P6SM SKC
     FM142200 36007KT P6SM SKC
      AMD LTD TO CLD VIS AND WIND=



000
FTUS45 KMSO 141700
TAFMSO
TAF
KMSO 141736Z 1418/1518 VRB05KT P6SM SKC
     FM142000 28010KT P6SM SKC
     FM150300 VRB05KT P6SM SCT150
     FM151600 29014G23KT P6SM BKN060=



    US Dept of Commerce
    National Oceanic and Atmospheric Administration
    National Weather Service
    1325 East West Highway
    Silver Spring, MD 20910
    Page Author: NWS Internet Services Team
Disclaimer
Information Quality
Credits
Glossary
Privacy Policy
Freedom of Information Act (FOIA)
About Us
Career Opportunities